Aérodrome :
LOGIN :

S'inscrire | Disclaimer

   EN    FR    IT 

 










Légende :    VFR   VFR Marginal   IFR   IFR Intensif   IFR Très Intensif
Visi : 
Plafond : 
>= 8 km
>= 3000ft
5 à 8 km
1000 à 3000 ft
1500m à 5 km
500 à 1000 ft
800 à 1500m
200 à 500 ft
< 800m
< 200 ft
Symboles :   Orages  Brouillard  Fortes neiges  Fortes précipitations  Vent > 20 kt
SIGMETs :   Divers  Orages  Givrage  Turbulence  Onde Orograph.  Cendres Volcan.







- Altitude de l'aérodrome : -11 ft
- Code IATA : AMS


EHAM - Amsterdam Schiphol

DERNIER METAR :
  • 241225Z 22011KT 9999 FEW028 09/06 Q1010 NOSIG

METARs EXPIRÉS :
  • 241155Z 21010KT 9999 FEW025 09/05 Q1009 NOSIG
  • 241125Z 20008KT 9999 FEW025 08/06 Q1009 NOSIG
  • 241055Z 21011KT 9999 VCSH FEW017TCU 08/06 Q1009 NOSIG
  • 241025Z 22009KT 9999 -SHRA FEW025TCU 08/05 Q1009 NOSIG
  • 240955Z 22007KT 9999 VCSH FEW025 08/06 Q1009 NOSIG

TAF TAF EHAM
Valide du 24 à 12h jusqu'au 25 à 18h UTC


241054Z 2412/2518 26007KT 9999 SCT020 BKN030
PROB30
TEMPO 2412/2415 7000 -RA -SHRA FEW015CB BKN018
PROB30
TEMPO 2504/2509 VRB03KT 0800 BCFG NSC
TEMPO 2510/2518 27015G25KT 6000 SHRA SHRAGS SCT020CB
Pas de NOTAMs connus pour ce terrain.



MET'MAP, la Météo Aéronautique d'un coup d'oeil ! - Copyright ORBIFLY Décembre 2007 - Disclaimer

ORBIFLY MET'MAP TEAM :

Programmation & Développement : Alexandra Zaïnal
Conception & Développement : Baudouin d'Aumeries
Co-Programmation & Développement : Marc-Olivier Méhu
Soutien technique & logistique : Manuel Goepfert

Contact : metmap@orbifly.com




SOURCES & CREDITS :

   NOAA